Time;durP1;ratioP1;P1;durP2;ratioP2;P2;SDS_P1;SDS_P2;PMS_P1;PMS_P2;Temp;Humidity;BMP_temperature;BMP_pressure;BME280_temperature;BME280_humidity;BME280_pressure;Samples;Min_cycle;Max_cycle;Signal;HPM_P1;HPM_P2
2023/08/05 00:01:09;;;;;;;3.92;1.00;;;17.50;78.30;;;16.35;100.00;95692.75;4982334;28;20444;-66
2023/08/05 00:03:35;;;;;;;2.60;1.17;;;17.60;78.30;;;16.33;100.00;95678.09;5007673;28;20088;-65
2023/08/05 00:06:01;;;;;;;2.92;1.00;;;17.50;78.50;;;16.32;100.00;95676.47;4973457;28;20060;-65
2023/08/05 00:08:27;;;;;;;3.33;1.00;;;17.50;78.60;;;16.29;100.00;95683.03;4993952;28;20452;-65
2023/08/05 00:10:53;;;;;;;2.13;0.95;;;17.50;78.80;;;16.30;100.00;95694.50;4978459;28;20045;-65
2023/08/05 00:13:19;;;;;;;2.03;1.00;;;17.50;78.80;;;16.30;100.00;95695.28;4978953;28;20042;-65
2023/08/05 00:15:45;;;;;;;2.28;1.25;;;17.40;78.80;;;16.27;100.00;95702.88;4997753;28;20183;-65
2023/08/05 00:18:10;;;;;;;3.60;1.35;;;17.40;78.90;;;16.25;100.00;95703.13;4995440;28;20037;-65
2023/08/05 00:20:36;;;;;;;2.22;1.33;;;17.40;79.10;;;16.25;100.00;95703.13;4985575;28;20030;-65
2023/08/05 00:23:02;;;;;;;2.22;1.00;;;17.40;79.10;;;16.26;100.00;95698.63;4990710;28;20041;-65
2023/08/05 00:25:28;;;;;;;1.90;1.00;;;17.40;79.20;;;16.24;100.00;95694.38;4971840;28;20046;-65
2023/08/05 00:27:53;;;;;;;2.00;1.30;;;17.40;79.30;;;16.22;100.00;95693.00;4984868;28;20504;-66
2023/08/05 00:30:19;;;;;;;2.53;1.10;;;17.30;79.40;;;16.22;100.00;95703.59;4981560;28;20577;-66
2023/08/05 00:32:45;;;;;;;2.55;1.00;;;17.40;79.40;;;16.20;100.00;95705.69;4971453;28;20504;-66
2023/08/05 00:35:11;;;;;;;2.15;1.23;;;17.40;79.50;;;16.20;100.00;95708.34;4983228;28;20452;-67
2023/08/05 00:37:36;;;;;;;3.28;1.20;;;17.30;79.60;;;16.19;100.00;95699.56;4995403;28;20043;-66
2023/08/05 00:40:04;;;;;;;2.33;1.10;;;17.30;79.70;;;16.18;100.00;95702.47;4994280;28;20054;-66
2023/08/05 00:42:30;;;;;;;1.95;1.13;;;17.30;79.60;;;16.18;100.00;95702.47;5010287;28;20037;-66
2023/08/05 00:44:56;;;;;;;2.35;1.10;;;17.30;79.70;;;16.18;100.00;95702.47;4994598;28;20099;-66
2023/08/05 00:47:23;;;;;;;1.70;0.93;;;17.30;80.00;;;16.19;100.00;95704.06;4991267;28;20067;-66
2023/08/05 00:49:51;;;;;;;2.35;1.00;;;17.40;79.80;;;16.20;100.00;95700.38;4984601;28;20039;-66
2023/08/05 00:52:18;;;;;;;3.00;1.15;;;17.40;79.70;;;16.18;100.00;95700.59;4980540;28;20036;-65
2023/08/05 00:54:44;;;;;;;2.25;1.30;;;17.40;79.80;;;16.17;100.00;95703.50;5005983;28;20039;-66
2023/08/05 00:57:12;;;;;;;2.80;1.10;;;17.40;79.80;;;16.15;100.00;95697.63;4967751;28;20037;-66
2023/08/05 00:59:37;;;;;;;3.15;1.30;;;17.30;79.90;;;16.16;100.00;95697.38;4983709;28;20026;-65
2023/08/05 01:02:03;;;;;;;4.32;1.60;;;17.40;80.00;;;16.16;100.00;95693.94;4995599;28;20382;-66
2023/08/05 01:04:29;;;;;;;3.63;1.30;;;17.30;80.10;;;16.14;100.00;95690.69;4989685;28;20026;-65
2023/08/05 01:06:55;;;;;;;1.75;1.23;;;17.30;80.30;;;16.14;100.00;95685.41;5007984;28;20046;-65
2023/08/05 01:09:21;;;;;;;3.78;1.48;;;17.20;80.70;;;16.12;100.00;95687.47;4993088;28;20038;-66
2023/08/05 01:11:46;;;;;;;6.35;1.63;;;17.20;80.70;;;16.11;100.00;95676.06;4975609;28;20527;-66
2023/08/05 01:14:12;;;;;;;4.47;1.58;;;17.20;80.90;;;16.10;100.00;95673.66;4991752;28;20069;-66
2023/08/05 01:16:38;;;;;;;2.63;1.42;;;17.20;81.10;;;16.10;100.00;95673.66;4968183;28;20125;-66
2023/08/05 01:19:04;;;;;;;2.42;1.38;;;17.30;81.10;;;16.10;100.00;95671.00;4980641;28;20386;-66
2023/08/05 01:21:37;;;;;;;2.85;1.80;;;17.20;81.00;;;16.11;100.00;95667.28;4969079;28;20089;-65
2023/08/05 01:24:14;;;;;;;3.05;1.80;;;17.20;81.40;;;16.08;100.00;95657.16;4986014;28;20092;-66
2023/08/05 01:26:40;;;;;;;3.42;2.05;;;17.20;81.40;;;16.05;100.00;95654.94;5006552;28;20039;-66
2023/08/05 01:29:06;;;;;;;2.67;1.95;;;17.10;81.80;;;16.05;100.00;95657.59;4972997;28;20033;-66
2023/08/05 01:31:32;;;;;;;3.83;1.90;;;17.10;82.00;;;16.01;100.00;95659.91;4975953;28;20073;-65
2023/08/05 01:33:58;;;;;;;3.55;1.80;;;17.10;82.00;;;16.01;100.00;95643.19;4997117;28;20042;-65
2023/08/05 01:36:24;;;;;;;2.80;1.83;;;17.10;81.90;;;16.00;100.00;95633.63;4986074;28;20042;-66
2023/08/05 01:38:50;;;;;;;2.97;1.70;;;17.10;81.60;;;15.97;100.00;95634.09;4995351;28;20038;-66
2023/08/05 01:41:16;;;;;;;4.13;1.40;;;17.00;81.40;;;15.95;100.00;95636.16;4980770;28;20539;-65
2023/08/05 01:43:42;;;;;;;2.75;1.50;;;17.00;81.60;;;15.93;100.00;95623.16;4977446;28;20030;-64
2023/08/05 01:46:07;;;;;;;3.22;1.77;;;17.00;81.20;;;15.92;100.00;95618.88;4990906;28;20041;-64
2023/08/05 01:48:33;;;;;;;2.60;1.35;;;17.10;81.10;;;15.93;100.00;95618.66;4989458;28;20113;-64
2023/08/05 01:50:59;;;;;;;3.13;1.50;;;17.10;80.80;;;15.96;100.00;95616.56;4978725;28;20149;-65
2023/08/05 01:53:25;;;;;;;1.85;1.10;;;17.10;80.90;;;15.94;100.00;95608.84;4976847;28;20128;-64
2023/08/05 01:55:50;;;;;;;3.05;1.33;;;17.10;80.80;;;15.95;100.00;95607.00;4982482;28;20048;-65
2023/08/05 01:58:16;;;;;;;3.67;1.10;;;17.00;80.70;;;15.93;100.00;95610.69;4965075;28;20515;-64
2023/08/05 02:00:50;;;;;;;1.85;0.82;;;17.00;80.90;;;15.93;100.00;95605.38;4973089;28;20472;-64
2023/08/05 02:03:16;;;;;;;2.33;1.10;;;17.10;80.70;;;15.93;100.00;95604.59;5011962;28;20033;-64
2023/08/05 02:05:44;;;;;;;2.47;0.85;;;17.10;80.50;;;15.93;100.00;95605.38;4995706;28;20480;-65
2023/08/05 02:08:10;;;;;;;2.50;0.90;;;17.10;80.30;;;15.91;100.00;95606.66;4980032;28;20169;-65
2023/08/05 02:10:37;;;;;;;2.50;0.98;;;17.00;80.30;;;15.91;100.00;95609.31;4992178;28;20034;-64
2023/08/05 02:13:06;;;;;;;1.17;0.80;;;17.00;79.90;;;15.90;100.00;95605.84;4989032;28;20037;-65
2023/08/05 02:15:32;;;;;;;1.45;0.65;;;17.00;79.80;;;15.90;100.00;95605.84;4992103;28;20038;-64
2023/08/05 02:17:58;;;;;;;0.90;0.65;;;17.10;79.50;;;15.88;100.00;95610.59;4991972;28;20320;-64
2023/08/05 02:20:23;;;;;;;0.68;0.50;;;17.00;79.30;;;15.88;100.00;95594.69;5009108;28;20034;-64
2023/08/05 02:22:49;;;;;;;0.90;0.70;;;17.00;79.20;;;15.87;100.00;95589.63;4974569;28;20144;-65
2023/08/05 02:25:15;;;;;;;0.85;0.63;;;17.00;79.20;;;15.87;100.00;95585.13;4994808;28;20560;-64
2023/08/05 02:27:41;;;;;;;1.73;0.68;;;17.10;79.10;;;15.88;100.00;95589.38;4973472;28;20031;-64
2023/08/05 02:30:08;;;;;;;2.53;0.88;;;17.00;78.90;;;15.86;100.00;95604.72;5012371;28;20033;-64
2023/08/05 02:32:34;;;;;;;2.38;0.73;;;17.00;78.80;;;15.85;100.00;95618.22;4976061;28;20397;-64
2023/08/05 02:34:59;;;;;;;1.15;0.70;;;17.00;78.80;;;15.84;100.00;95617.41;5012327;28;20384;-64
2023/08/05 02:37:25;;;;;;;1.05;0.60;;;17.10;78.80;;;15.84;100.00;95622.72;4974816;28;20449;-64
2023/08/05 02:39:51;;;;;;;1.02;0.70;;;17.00;78.90;;;15.81;100.00;95635.59;5000952;28;20112;-64
2023/08/05 02:42:17;;;;;;;0.85;0.47;;;17.00;78.90;;;15.80;100.00;95639.28;4987148;28;20030;-64
2023/08/05 02:44:42;;;;;;;1.88;0.70;;;17.00;79.10;;;15.80;100.00;95642.75;5003666;28;20034;-63
2023/08/05 02:47:08;;;;;;;2.38;0.80;;;16.90;79.20;;;15.79;100.00;95640.34;4993567;28;20033;-64
2023/08/05 02:49:34;;;;;;;4.78;0.80;;;16.90;79.40;;;15.75;100.00;95647.97;4953674;28;20036;-64
2023/08/05 02:52:00;;;;;;;0.80;0.68;;;16.80;79.50;;;15.76;100.00;95654.06;4977645;28;20044;-66
2023/08/05 02:54:26;;;;;;;2.25;1.00;;;16.90;79.50;;;15.75;100.00;95661.22;4971330;28;20053;-65
2023/08/05 02:56:52;;;;;;;1.42;0.70;;;16.80;79.70;;;15.76;100.00;95664.66;4999676;28;20549;-64
2023/08/05 02:59:18;;;;;;;1.95;1.10;;;16.90;79.70;;;15.73;100.00;95663.28;4991351;28;20034;-64
2023/08/05 03:01:43;;;;;;;3.08;0.90;;;16.80;79.90;;;15.69;100.00;95648.91;4954533;28;20152;-65
2023/08/05 03:04:09;;;;;;;2.15;1.10;;;16.70;80.20;;;15.65;100.00;95650.41;4976336;28;20033;-65
2023/08/05 03:06:35;;;;;;;2.58;1.00;;;16.60;80.50;;;15.64;100.00;95646.13;4976886;28;20077;-65
2023/08/05 03:09:01;;;;;;;1.85;1.00;;;16.70;80.60;;;15.64;100.00;95648.78;4990842;28;20491;-65
2023/08/05 03:11:30;;;;;;;2.20;1.00;;;16.70;80.70;;;15.65;100.00;95645.09;4972881;28;20080;-65
2023/08/05 03:13:56;;;;;;;1.00;0.90;;;16.70;80.50;;;15.64;100.00;95656.75;4972309;28;20080;-64
2023/08/05 03:16:22;;;;;;;1.77;1.00;;;16.70;80.40;;;15.62;100.00;95656.16;4978154;28;20036;-64
2023/08/05 03:18:48;;;;;;;2.45;1.20;;;16.70;80.50;;;15.64;100.00;95669.19;4974862;28;20406;-65
2023/08/05 03:21:14;;;;;;;1.75;1.10;;;16.80;80.30;;;15.60;100.00;95663.50;4983374;28;20037;-64
2023/08/05 03:23:39;;;;;;;2.22;1.40;;;16.70;80.50;;;15.61;100.00;95676.56;4978371;28;20034;-65
2023/08/05 03:26:05;;;;;;;1.48;1.35;;;16.80;80.30;;;15.62;100.00;95674.72;4983300;28;20176;-65
2023/08/05 03:28:31;;;;;;;2.15;1.40;;;16.80;80.50;;;15.61;100.00;95675.72;4961927;28;20080;-64
2023/08/05 03:30:57;;;;;;;1.30;1.20;;;16.70;80.50;;;15.60;100.00;95690.03;4990113;28;20038;-62
2023/08/05 03:33:23;;;;;;;2.08;1.30;;;16.70;80.50;;;15.58;100.00;95697.38;4969774;28;20042;-65
2023/08/05 03:35:48;;;;;;;2.63;1.60;;;16.70;80.70;;;15.57;100.00;95695.75;4994951;28;20037;-66
2023/08/05 03:38:15;;;;;;;2.17;1.63;;;16.60;80.80;;;15.56;100.00;95697.59;4976825;28;20045;-67
2023/08/05 03:40:40;;;;;;;2.28;1.60;;;16.60;80.80;;;15.53;100.00;95690.13;4981205;28;20025;-67
2023/08/05 03:43:06;;;;;;;2.90;1.60;;;16.60;81.00;;;15.54;100.00;95681.13;4989254;28;20041;-67
2023/08/05 03:45:32;;;;;;;1.73;1.60;;;16.70;80.80;;;15.57;100.00;95675.34;4966974;28;20466;-65
2023/08/05 03:47:58;;;;;;;2.80;1.77;;;16.70;80.70;;;15.57;100.00;95669.25;4983099;28;20133;-64
2023/08/05 03:50:24;;;;;;;2.30;2.00;;;16.80;80.90;;;15.56;100.00;95665.00;4990928;28;20063;-65
2023/08/05 03:52:49;;;;;;;2.72;1.80;;;16.70;81.00;;;15.55;100.00;95676.63;4990687;28;20038;-65
2023/08/05 03:55:16;;;;;;;2.30;1.80;;;16.70;81.20;;;15.55;100.00;95668.69;4977952;28;20029;-65
2023/08/05 03:57:42;;;;;;;3.35;2.15;;;16.70;81.20;;;15.53;100.00;95668.91;4977750;28;20025;-64
2023/08/05 04:00:12;;;;;;;2.03;1.80;;;16.70;81.20;;;15.54;100.00;95659.13;4989581;28;20057;-65
2023/08/05 04:02:38;;;;;;;3.22;2.17;;;16.80;81.30;;;15.54;100.00;95672.38;4990738;28;20038;-65
2023/08/05 04:05:04;;;;;;;2.50;2.20;;;16.70;81.30;;;15.53;100.00;95678.72;4990655;28;20046;-65
2023/08/05 04:07:33;;;;;;;3.03;2.20;;;16.70;81.70;;;15.51;100.00;95672.84;4975441;28;20033;-65
2023/08/05 04:09:59;;;;;;;3.03;2.47;;;16.60;81.60;;;15.50;100.00;95679.16;4959492;28;20034;-65
2023/08/05 04:12:26;;;;;;;3.75;2.55;;;16.60;82.00;;;15.51;100.00;95686.09;4978162;28;20248;-66
2023/08/05 04:14:52;;;;;;;3.83;2.63;;;16.60;82.00;;;15.50;100.00;95687.13;4957121;28;20069;-64
2023/08/05 04:17:19;;;;;;;3.97;2.95;;;16.60;82.00;;;15.48;100.00;95684.69;5015055;28;20026;-64
2023/08/05 04:19:46;;;;;;;3.30;3.00;;;16.60;82.20;;;15.48;100.00;95689.19;4974269;28;20049;-64
2023/08/05 04:22:12;;;;;;;3.38;2.88;;;16.70;82.00;;;15.46;100.00;95688.63;5014856;28;20034;-64
2023/08/05 04:24:41;;;;;;;4.90;3.80;;;16.70;82.10;;;15.46;100.00;95685.97;4979830;28;20095;-65
2023/08/05 04:27:07;;;;;;;3.70;3.40;;;16.70;82.20;;;15.47;100.00;95680.44;5010735;28;20038;-64
2023/08/05 04:29:33;;;;;;;4.78;4.38;;;16.70;82.20;;;15.45;100.00;95687.00;4979571;28;20139;-64
2023/08/05 04:31:59;;;;;;;5.35;4.85;;;16.60;82.40;;;15.44;100.00;95685.41;5009492;28;20053;-65
2023/08/05 04:34:25;;;;;;;6.25;5.38;;;16.60;82.30;;;15.45;100.00;95679.06;4991491;28;20384;-69
2023/08/05 04:36:51;;;;;;;6.68;5.50;;;16.70;82.30;;;15.44;100.00;95680.09;4970943;28;20154;-64
2023/08/05 04:39:20;;;;;;;6.05;5.35;;;16.60;82.60;;;15.44;100.00;95672.94;4978930;28;20057;-64
2023/08/05 04:41:46;;;;;;;6.57;5.97;;;16.60;82.70;;;15.44;100.00;95670.31;4972843;28;20029;-65
2023/08/05 04:44:12;;;;;;;6.97;6.28;;;16.60;82.70;;;15.42;100.00;95677.69;5007908;28;20084;-65
2023/08/05 04:46:38;;;;;;;7.88;6.57;;;16.60;82.80;;;15.43;100.00;95678.47;4969379;28;20370;-64
2023/08/05 04:49:07;;;;;;;7.95;7.25;;;16.60;82.90;;;15.45;100.00;95681.72;4989596;28;20086;-66
2023/08/05 04:51:34;;;;;;;8.15;7.35;;;16.60;82.90;;;15.44;100.00;95682.75;4977878;28;20128;-64
2023/08/05 04:54:03;;;;;;;8.00;7.20;;;16.70;82.80;;;15.43;100.00;95681.94;4976712;28;20026;-66
2023/08/05 04:56:29;;;;;;;8.68;7.80;;;16.60;82.80;;;15.43;100.00;95674.00;4993695;28;20524;-64
2023/08/05 04:58:55;;;;;;;9.50;7.82;;;16.60;83.10;;;15.45;100.00;95676.41;4989893;28;20030;-65
2023/08/05 05:01:20;;;;;;;8.88;7.97;;;16.70;83.00;;;15.45;100.00;95665.81;4976875;28;20090;-64
2023/08/05 05:03:48;;;;;;;8.38;7.57;;;16.70;83.20;;;15.45;100.00;95660.50;4992747;28;20406;-65
2023/08/05 05:06:14;;;;;;;10.60;8.32;;;16.60;83.30;;;15.44;100.00;95658.91;4992526;28;20039;-65
2023/08/05 05:08:40;;;;;;;8.48;7.65;;;16.60;83.30;;;15.45;100.00;95649.91;4988800;28;20043;-65
2023/08/05 05:11:07;;;;;;;8.52;7.63;;;16.70;83.20;;;15.48;100.00;95652.91;4989098;28;20043;-66
2023/08/05 05:13:33;;;;;;;9.32;8.18;;;16.80;83.10;;;15.52;100.00;95661.19;4993357;28;20040;-65
2023/08/05 05:15:59;;;;;;;9.77;8.10;;;16.80;83.20;;;15.54;100.00;95667.06;4975146;28;20050;-66
2023/08/05 05:18:24;;;;;;;8.75;7.75;;;16.90;82.90;;;15.57;100.00;95658.66;4982574;28;20507;-65
2023/08/05 05:20:50;;;;;;;7.70;7.00;;;17.00;82.80;;;15.62;100.00;95653.50;4976652;28;20441;-65
2023/08/05 05:23:16;;;;;;;8.02;7.22;;;17.00;82.50;;;15.65;100.00;95650.41;5003035;28;20038;-67
2023/08/05 05:25:45;;;;;;;7.57;6.88;;;17.10;82.50;;;15.67;100.00;95648.31;4959151;28;20042;-64
2023/08/05 05:28:11;;;;;;;8.05;6.97;;;17.10;82.40;;;15.70;100.00;95662.97;5007608;28;20041;-65
2023/08/05 05:30:37;;;;;;;7.18;6.47;;;17.10;82.30;;;15.73;100.00;95658.00;4988680;28;20449;-65
2023/08/05 05:33:03;;;;;;;6.70;6.10;;;17.10;82.10;;;15.77;100.00;95659.13;4993600;28;20087;-66
2023/08/05 05:35:29;;;;;;;6.57;5.88;;;17.20;82.20;;;15.80;100.00;95663.97;4988843;28;20060;-67
2023/08/05 05:37:55;;;;;;;8.18;6.07;;;17.20;82.30;;;15.84;100.00;95662.50;4975763;28;20081;-65
2023/08/05 05:40:21;;;;;;;6.22;5.53;;;17.30;81.90;;;15.88;100.00;95663.63;4992417;28;20021;-65
2023/08/05 05:42:49;;;;;;;5.82;5.18;;;17.30;81.80;;;15.90;100.00;95653.59;4968030;28;20372;-65
2023/08/05 05:45:15;;;;;;;5.03;4.60;;;17.40;81.60;;;15.94;100.00;95664.53;4989519;28;20038;-64
2023/08/05 05:47:41;;;;;;;7.53;5.47;;;17.40;81.30;;;15.98;100.00;95664.88;4968765;28;20018;-65
2023/08/05 05:50:08;;;;;;;5.40;4.80;;;17.50;81.20;;;16.02;100.00;95671.31;4990896;28;20216;-65
2023/08/05 05:52:34;;;;;;;4.75;4.35;;;17.50;81.10;;;16.03;100.00;95665.78;5008950;28;20030;-65
2023/08/05 05:55:00;;;;;;;5.50;5.00;;;17.50;80.90;;;16.07;100.00;95680.22;5007695;28;20049;-65
2023/08/05 05:57:25;;;;;;;4.63;4.22;;;17.50;80.60;;;16.08;100.00;95679.19;4975407;28;20247;-65
2023/08/05 05:59:51;;;;;;;5.32;4.82;;;17.50;80.90;;;16.11;100.00;95680.56;4990197;28;20510;-64
2023/08/05 06:02:17;;;;;;;6.18;4.60;;;17.40;80.50;;;16.13;100.00;95681.94;4989098;28;20438;-66
2023/08/05 06:04:44;;;;;;;4.82;4.30;;;17.60;80.30;;;16.16;100.00;95688.63;4973966;28;20031;-65
2023/08/05 06:07:10;;;;;;;6.82;4.40;;;17.60;80.00;;;16.17;100.00;95690.22;4974600;28;20468;-67
2023/08/05 06:09:38;;;;;;;5.15;4.65;;;17.60;80.00;;;16.18;100.00;95686.53;4993895;28;20041;-66
2023/08/05 06:12:04;;;;;;;4.55;4.15;;;17.60;79.90;;;16.21;100.00;95688.72;4975977;28;20248;-65
2023/08/05 06:14:30;;;;;;;8.75;4.57;;;17.70;79.90;;;16.24;100.00;95691.72;4995452;28;20132;-66
2023/08/05 06:16:56;;;;;;;4.15;3.75;;;17.70;79.90;;;16.27;100.00;95682.47;4959333;28;20446;-66
2023/08/05 06:19:21;;;;;;;4.53;3.97;;;17.80;79.90;;;16.31;100.00;95680.19;4978180;28;20042;-65
2023/08/05 06:21:47;;;;;;;5.45;4.28;;;17.80;79.30;;;16.31;100.00;95670.38;4974928;28;20034;-66
2023/08/05 06:24:13;;;;;;;4.60;4.20;;;17.80;79.10;;;16.36;100.00;95672.31;4970537;28;20080;-64
2023/08/05 06:26:39;;;;;;;4.47;3.92;;;17.80;78.90;;;16.38;100.00;95676.34;4986070;28;20843;-65
2023/08/05 06:29:05;;;;;;;4.38;3.97;;;17.90;79.00;;;16.42;100.00;95687.28;4989865;28;20118;-66
2023/08/05 06:31:30;;;;;;;4.70;4.20;;;17.90;79.30;;;16.41;100.00;95689.13;4990297;28;20113;-67
2023/08/05 06:33:57;;;;;;;5.13;4.15;;;17.80;78.70;;;16.40;100.00;95706.09;4990910;28;20122;-67
2023/08/05 06:36:22;;;;;;;7.10;4.95;;;17.80;78.50;;;16.41;100.00;95705.06;4989323;28;20031;-67
2023/08/05 06:38:48;;;;;;;4.90;4.40;;;17.90;78.20;;;16.41;100.00;95697.09;4979443;28;20034;-67
2023/08/05 06:41:14;;;;;;;5.25;4.75;;;17.90;78.40;;;16.41;100.00;95707.72;4967851;28;20559;-67
2023/08/05 06:43:40;;;;;;;5.13;4.63;;;17.70;78.50;;;16.39;100.00;95712.47;4979191;28;20061;-67
2023/08/05 06:46:05;;;;;;;7.43;5.32;;;17.70;78.70;;;16.37;100.00;95709.22;4987178;28;20096;-67
2023/08/05 06:48:31;;;;;;;7.35;5.30;;;17.60;78.60;;;16.38;100.00;95713.50;4990462;28;21057;-68
2023/08/05 06:50:58;;;;;;;6.38;5.00;;;17.70;78.80;;;16.38;100.00;95710.03;4989058;28;20030;-68
2023/08/05 06:53:24;;;;;;;7.28;5.03;;;17.70;78.40;;;16.38;100.00;95708.19;4988937;28;20030;-69
2023/08/05 06:56:02;;;;;;;5.93;4.70;;;17.80;78.50;;;16.41;100.00;95713.03;4975105;28;20156;-64
2023/08/05 06:58:28;;;;;;;7.90;5.20;;;17.80;78.00;;;16.40;100.00;95706.09;5008753;28;20133;-66
2023/08/05 07:00:54;;;;;;;6.82;5.15;;;17.70;78.20;;;16.43;100.00;95700.31;4996012;28;20117;-66
2023/08/05 07:03:20;;;;;;;5.55;4.85;;;17.80;78.30;;;16.46;100.00;95701.69;4989367;28;20034;-65
2023/08/05 07:05:46;;;;;;;9.55;5.30;;;17.80;78.10;;;16.44;100.00;95696.63;4981921;28;20476;-66
2023/08/05 07:08:12;;;;;;;8.10;5.43;;;17.70;78.20;;;16.45;100.00;95698.22;4987129;28;20377;-67
2023/08/05 07:10:37;;;;;;;5.43;4.72;;;17.70;78.20;;;16.44;100.00;95707.25;4979388;28;20451;-67
2023/08/05 07:13:05;;;;;;;5.43;4.85;;;17.70;78.00;;;16.46;100.00;95705.16;4985020;28;20425;-66
2023/08/05 07:15:37;;;;;;;7.68;4.22;;;17.80;78.00;;;16.47;100.00;95712.09;4982678;28;20058;-65
2023/08/05 07:18:04;;;;;;;6.80;4.78;;;17.80;77.90;;;16.48;100.00;95705.72;4971581;28;20062;-66
2023/08/05 07:20:30;;;;;;;7.20;4.70;;;17.80;77.50;;;16.46;100.00;95713.13;4976116;28;20034;-66
2023/08/05 07:22:56;;;;;;;5.72;4.75;;;17.70;77.80;;;16.47;100.00;95713.94;4987069;28;20486;-64
2023/08/05 07:25:22;;;;;;;4.97;4.47;;;17.80;78.00;;;16.47;100.00;95717.38;4993340;28;20766;-68
2023/08/05 07:27:47;;;;;;;5.03;4.28;;;17.90;77.70;;;16.49;100.00;95712.66;4973704;28;20026;-64
2023/08/05 07:30:13;;;;;;;7.00;5.70;;;17.90;77.80;;;16.51;100.00;95713.22;4976128;28;20201;-64
2023/08/05 07:32:39;;;;;;;6.40;4.38;;;17.80;77.80;;;16.47;100.00;95722.69;4993577;28;20095;-64
2023/08/05 07:35:07;;;;;;;5.72;4.65;;;17.70;78.10;;;16.45;100.00;95711.50;4989848;28;20065;-65
2023/08/05 07:37:34;;;;;;;6.88;4.60;;;17.70;78.40;;;16.48;100.00;95703.06;4978294;28;20034;-65
2023/08/05 07:40:00;;;;;;;6.50;4.65;;;17.80;78.30;;;16.50;100.00;95706.28;4996775;28;20297;-65
2023/08/05 07:42:27;;;;;;;5.93;4.38;;;17.80;77.90;;;16.53;100.00;95694.44;5004318;28;20062;-65
2023/08/05 07:44:53;;;;;;;4.88;4.38;;;18.00;77.90;;;16.58;100.00;95697.16;5000748;28;20045;-65
2023/08/05 07:47:19;;;;;;;5.30;4.80;;;18.10;77.40;;;16.62;100.00;95705.47;4984743;28;20121;-65
2023/08/05 07:49:45;;;;;;;5.72;4.90;;;18.10;77.50;;;16.68;100.00;95704.53;4992844;28;20041;-65
2023/08/05 07:52:11;;;;;;;5.93;4.30;;;18.20;77.20;;;16.72;100.00;95703.84;4990737;28;20034;-66
2023/08/05 07:54:36;;;;;;;6.75;4.93;;;18.10;77.30;;;16.76;100.00;95698.88;4974611;28;21073;-65
2023/08/05 07:57:03;;;;;;;5.93;4.63;;;18.10;76.80;;;16.80;100.00;95700.00;5001963;28;20041;-65
2023/08/05 07:59:30;;;;;;;5.43;4.82;;;18.30;76.60;;;16.86;100.00;95704.38;4987966;28;20054;-65
2023/08/05 08:01:57;;;;;;;6.57;4.88;;;18.40;75.80;;;16.92;100.00;95719.34;4965838;28;20046;-65
2023/08/05 08:04:23;;;;;;;5.32;4.72;;;18.40;75.20;;;16.96;100.00;95715.16;4988128;28;20042;-66
2023/08/05 08:06:48;;;;;;;6.20;5.03;;;18.50;75.40;;;17.02;100.00;95716.88;4978616;28;20045;-66
2023/08/05 08:09:14;;;;;;;6.63;5.00;;;18.60;75.20;;;17.07;100.00;95714.31;4958368;28;20050;-66
2023/08/05 08:11:40;;;;;;;6.35;5.03;;;18.60;75.30;;;17.10;100.00;95705.88;4981223;28;20036;-66
2023/08/05 08:14:06;;;;;;;7.28;5.32;;;18.60;75.00;;;17.14;100.00;95712.31;4960288;28;20042;-66
2023/08/05 08:16:32;;;;;;;6.35;4.40;;;18.70;75.10;;;17.21;100.00;95706.06;5001173;28;20118;-65
2023/08/05 08:18:58;;;;;;;5.20;4.07;;;18.70;75.20;;;17.27;100.00;95705.09;4970618;28;20514;-66
2023/08/05 08:21:24;;;;;;;4.78;4.28;;;18.90;75.00;;;17.33;100.00;95714.75;4993525;28;20052;-66
2023/08/05 08:23:50;;;;;;;5.72;4.03;;;18.80;74.90;;;17.40;100.00;95704.75;4990369;28;20393;-66
2023/08/05 08:26:16;;;;;;;5.55;4.32;;;19.10;74.20;;;17.49;100.00;95708.66;5009374;28;20466;-66
2023/08/05 08:28:41;;;;;;;4.85;4.13;;;19.10;74.00;;;17.55;100.00;95699.69;4993633;28;20116;-66
2023/08/05 08:31:07;;;;;;;8.77;4.50;;;19.10;73.60;;;17.62;100.00;95691.53;5013541;28;20108;-67
2023/08/05 08:33:33;;;;;;;4.80;4.30;;;19.30;73.50;;;17.64;100.00;95695.56;4978074;28;20116;-67
2023/08/05 08:35:58;;;;;;;11.45;5.05;;;19.10;73.20;;;17.66;100.00;95696.16;4987874;28;20172;-66
2023/08/05 08:38:25;;;;;;;5.50;4.65;;;19.20;72.80;;;17.71;100.00;95701.59;4990881;28;20036;-66
2023/08/05 08:40:52;;;;;;;4.43;3.85;;;19.30;72.90;;;17.77;100.00;95699.78;4997575;28;20088;-67
2023/08/05 08:43:18;;;;;;;5.90;4.60;;;19.40;72.70;;;17.78;100.00;95695.28;4982985;28;20500;-66
2023/08/05 08:45:46;;;;;;;8.40;7.50;;;19.30;72.40;;;17.79;100.00;95696.88;4972652;28;20116;-66
2023/08/05 08:48:13;;;;;;;7.53;6.38;;;19.30;72.70;;;17.83;100.00;95703.31;4998933;28;20126;-66
2023/08/05 08:50:39;;;;;;;13.95;10.35;;;19.20;72.70;;;17.86;100.00;95708.97;4995808;28;20229;-67
2023/08/05 08:53:06;;;;;;;5.75;5.07;;;19.40;73.00;;;17.86;100.00;95713.47;4967104;28;20143;-67
2023/08/05 08:55:32;;;;;;;6.35;4.28;;;19.40;73.50;;;17.86;100.00;95718.81;4994389;28;20043;-66
2023/08/05 08:57:58;;;;;;;5.50;4.10;;;19.30;73.80;;;17.83;100.00;95708.66;5015071;28;20038;-66
2023/08/05 09:00:25;;;;;;;5.22;4.35;;;19.30;74.40;;;17.81;100.00;95710.75;4986345;28;20569;-66
2023/08/05 09:02:51;;;;;;;5.65;4.90;;;19.20;74.80;;;17.76;100.00;95706.16;4996312;28;20033;-66
2023/08/05 09:05:17;;;;;;;5.32;4.80;;;19.10;75.20;;;17.72;100.00;95713.84;4965140;28;20148;-66
2023/08/05 09:07:43;;;;;;;5.75;5.18;;;19.10;75.80;;;17.71;100.00;95716.75;4980973;28;20117;-67
2023/08/05 09:10:09;;;;;;;7.43;5.90;;;19.10;76.20;;;17.67;100.00;95700.47;4989860;28;20508;-66
2023/08/05 09:12:34;;;;;;;6.45;5.38;;;19.10;76.80;;;17.64;100.00;95708.06;4995931;28;20030;-66
2023/08/05 09:15:00;;;;;;;5.68;5.00;;;19.00;77.10;;;17.59;100.00;95703.47;4999904;28;20037;-66
2023/08/05 09:17:26;;;;;;;5.75;5.15;;;19.00;77.20;;;17.52;100.00;95697.53;4997828;28;20026;-66
2023/08/05 09:19:52;;;;;;;5.80;5.05;;;18.90;77.20;;;17.49;100.00;95697.22;4973332;28;20180;-67
2023/08/05 09:22:18;;;;;;;6.93;5.63;;;18.90;77.50;;;17.45;100.00;95696.88;5008055;28;20413;-66
2023/08/05 09:24:44;;;;;;;7.10;5.68;;;18.90;78.00;;;17.44;100.00;95701.41;4977059;28;20082;-66
2023/08/05 09:27:09;;;;;;;6.60;5.80;;;18.80;78.30;;;17.42;100.00;95697.34;5006678;28;20041;-67
2023/08/05 09:29:36;;;;;;;6.40;5.78;;;18.80;78.20;;;17.41;100.00;95695.72;4990549;28;20136;-66
2023/08/05 09:32:04;;;;;;;6.95;5.65;;;18.80;78.50;;;17.39;100.00;95697.84;4976001;28;20045;-66
2023/08/05 09:34:42;;;;;;;6.80;6.10;;;18.80;78.60;;;17.38;100.00;95685.59;4989547;28;20041;-66
2023/08/05 09:37:08;;;;;;;5.57;5.07;;;18.90;78.50;;;17.40;100.00;95686.16;4994908;28;20041;-66
2023/08/05 09:39:47;;;;;;;8.63;5.88;;;18.90;78.60;;;17.44;100.00;95685.44;4991040;28;20042;-66
2023/08/05 09:42:27;;;;;;;6.07;5.28;;;19.00;78.20;;;17.48;100.00;95690.28;4980279;28;20040;-66
2023/08/05 09:44:54;;;;;;;6.20;5.25;;;19.00;78.80;;;17.52;100.00;95681.56;4977133;28;20532;-66
2023/08/05 09:47:23;;;;;;;7.32;5.18;;;19.20;78.90;;;17.61;100.00;95674.78;5003949;28;20120;-65
2023/08/05 09:49:50;;;;;;;5.55;4.85;;;19.40;78.00;;;17.74;100.00;95677.16;5007265;28;20038;-66
2023/08/05 09:52:21;;;;;;;5.82;5.22;;;19.60;77.40;;;17.93;100.00;95671.56;4989333;28;20042;-67
2023/08/05 09:55:12;;;;;;;5.03;4.53;;;20.00;76.80;;;18.14;100.00;95672.66;4973732;28;20034;-66
2023/08/05 09:57:37;;;;;;;5.10;4.35;;;20.30;76.30;;;18.34;100.00;95671.03;5005533;28;20034;-64
2023/08/05 10:00:08;;;;;;;4.95;4.35;;;20.50;75.10;;;18.53;100.00;95666.19;4990344;28;20504;-65
2023/08/05 10:02:34;;;;;;;5.75;5.22;;;20.80;74.40;;;18.73;100.00;95676.28;4974141;28;20425;-67
2023/08/05 10:05:00;;;;;;;5.13;4.20;;;21.00;74.00;;;18.90;100.00;95668.22;5006756;28;20025;-66
2023/08/05 10:07:27;;;;;;;4.40;4.00;;;21.10;72.70;;;19.06;100.00;95658.50;4974196;28;20390;-65
2023/08/05 10:09:53;;;;;;;5.03;3.90;;;21.30;70.20;;;19.23;100.00;95669.84;4991265;28;20047;-67